sensor_id;sensor_type;location;lat;lon;timestamp;pressure;altitude;pressure_sealevel;temperature;humidity
14790;BME280;7486;51.010;10.366;2023-08-07T00:02:27;97374.16;;;11.20;94.37
14790;BME280;7486;51.010;10.366;2023-08-07T00:05:14;96953.19;;;8.70;93.80
14790;BME280;7486;51.010;10.366;2023-08-07T00:07:59;97322.22;;;10.85;94.10
14790;BME280;7486;51.010;10.366;2023-08-07T00:10:45;97410.72;;;11.53;93.68
14790;BME280;7486;51.010;10.366;2023-08-07T00:13:31;97435.50;;;11.82;92.77
14790;BME280;7486;51.010;10.366;2023-08-07T00:16:17;97442.44;;;11.95;92.54
14790;BME280;7486;51.010;10.366;2023-08-07T00:19:03;97435.59;;;11.99;92.00
14790;BME280;7486;51.010;10.366;2023-08-07T00:21:49;96758.41;;;7.18;93.22
14790;BME280;7486;51.010;10.366;2023-08-07T00:24:35;97288.28;;;10.40;95.22
14790;BME280;7486;51.010;10.366;2023-08-07T00:27:21;97448.06;;;11.29;95.87
14790;BME280;7486;51.010;10.366;2023-08-07T00:30:06;97334.72;;;10.54;95.49
14790;BME280;7486;51.010;10.366;2023-08-07T00:32:52;97395.69;;;10.78;96.41
14790;BME280;7486;51.010;10.366;2023-08-07T00:35:39;97462.47;;;10.80;98.24
14790;BME280;7486;51.010;10.366;2023-08-07T00:38:26;97344.16;;;9.73;100.00
14790;BME280;7486;51.010;10.366;2023-08-07T00:41:11;97203.63;;;9.03;100.00
14790;BME280;7486;51.010;10.366;2023-08-07T00:43:57;97275.53;;;9.23;99.56
14790;BME280;7486;51.010;10.366;2023-08-07T00:46:47;97381.72;;;9.56;100.00
14790;BME280;7486;51.010;10.366;2023-08-07T00:49:48;97471.66;;;10.29;100.00
14790;BME280;7486;51.010;10.366;2023-08-07T00:52:57;97477.88;;;10.35;100.00
14790;BME280;7486;51.010;10.366;2023-08-07T00:55:50;97291.53;;;9.10;99.97
14790;BME280;7486;51.010;10.366;2023-08-07T00:58:37;97483.09;;;10.41;100.00
14790;BME280;7486;51.010;10.366;2023-08-07T01:01:23;97396.72;;;9.99;99.13
14790;BME280;7486;51.010;10.366;2023-08-07T01:04:09;97492.50;;;10.73;96.71
14790;BME280;7486;51.010;10.366;2023-08-07T01:06:59;97295.56;;;9.55;96.92
14790;BME280;7486;51.010;10.366;2023-08-07T01:09:47;97334.53;;;9.60;95.90
14790;BME280;7486;51.010;10.366;2023-08-07T01:12:38;97033.44;;;7.71;96.17
14790;BME280;7486;51.010;10.366;2023-08-07T01:15:32;97430.38;;;10.10;96.74
14790;BME280;7486;51.010;10.366;2023-08-07T01:18:31;97506.31;;;10.76;95.30
14790;BME280;7486;51.010;10.366;2023-08-07T01:21:18;97407.69;;;10.32;94.61
14790;BME280;7486;51.010;10.366;2023-08-07T01:24:04;97446.66;;;10.43;94.73
14790;BME280;7486;51.010;10.366;2023-08-07T01:26:51;97526.19;;;10.85;94.99
14790;BME280;7486;51.010;10.366;2023-08-07T01:33:27;97509.78;;;10.76;94.34
14790;BME280;7486;51.010;10.366;2023-08-07T01:36:17;97387.91;;;9.87;94.07
14790;BME280;7486;51.010;10.366;2023-08-07T01:39:04;97248.69;;;8.90;95.36
14790;BME280;7486;51.010;10.366;2023-08-07T01:41:51;97459.25;;;10.30;96.08
14790;BME280;7486;51.010;10.366;2023-08-07T01:44:36;97377.19;;;9.82;95.55
14790;BME280;7486;51.010;10.366;2023-08-07T01:47:22;97363.06;;;9.69;94.61
14790;BME280;7486;51.010;10.366;2023-08-07T01:50:08;97498.84;;;10.36;95.94
14790;BME280;7486;51.010;10.366;2023-08-07T01:52:53;97530.22;;;10.57;94.65
14790;BME280;7486;51.010;10.366;2023-08-07T01:55:39;97360.47;;;9.27;95.63
14790;BME280;7486;51.010;10.366;2023-08-07T01:58:24;97371.22;;;9.50;95.59
14790;BME280;7486;51.010;10.366;2023-08-07T02:01:10;97451.31;;;9.93;95.26
14790;BME280;7486;51.010;10.366;2023-08-07T02:03:55;97441.97;;;9.91;95.54
14790;BME280;7486;51.010;10.366;2023-08-07T02:06:43;97416.88;;;9.82;94.65
14790;BME280;7486;51.010;10.366;2023-08-07T02:09:31;97448.44;;;9.95;96.54
14790;BME280;7486;51.010;10.366;2023-08-07T02:12:17;97527.09;;;10.24;97.19
14790;BME280;7486;51.010;10.366;2023-08-07T02:15:03;97492.09;;;10.22;95.72
14790;BME280;7486;51.010;10.366;2023-08-07T02:17:49;97537.41;;;10.50;96.27
14790;BME280;7486;51.010;10.366;2023-08-07T02:20:35;97480.63;;;10.28;95.07
14790;BME280;7486;51.010;10.366;2023-08-07T02:23:20;97405.53;;;9.75;95.30
14790;BME280;7486;51.010;10.366;2023-08-07T02:26:06;97373.00;;;9.38;95.02
14790;BME280;7486;51.010;10.366;2023-08-07T02:28:51;97353.06;;;9.35;95.21
14790;BME280;7486;51.010;10.366;2023-08-07T02:31:36;97414.50;;;9.73;96.15
14790;BME280;7486;51.010;10.366;2023-08-07T02:34:22;97501.78;;;10.28;95.44
14790;BME280;7486;51.010;10.366;2023-08-07T02:37:08;97524.50;;;10.36;95.60
14790;BME280;7486;51.010;10.366;2023-08-07T02:39:54;97458.75;;;10.03;95.52
14790;BME280;7486;51.010;10.366;2023-08-07T02:42:40;97501.28;;;10.38;94.97
14790;BME280;7486;51.010;10.366;2023-08-07T02:45:25;97350.16;;;9.43;94.87
14790;BME280;7486;51.010;10.366;2023-08-07T02:48:11;97474.69;;;10.14;94.50
14790;BME280;7486;51.010;10.366;2023-08-07T02:50:57;97503.88;;;10.44;94.59
14790;BME280;7486;51.010;10.366;2023-08-07T02:53:42;97497.47;;;10.34;95.07
14790;BME280;7486;51.010;10.366;2023-08-07T02:56:28;97500.03;;;10.40;94.41
14790;BME280;7486;51.010;10.366;2023-08-07T02:59:13;97414.22;;;10.00;93.47
14790;BME280;7486;51.010;10.366;2023-08-07T03:01:59;97400.63;;;9.78;93.60
14790;BME280;7486;51.010;10.366;2023-08-07T03:04:44;97493.28;;;10.44;92.50
14790;BME280;7486;51.010;10.366;2023-08-07T03:07:29;97442.78;;;10.09;92.64
14790;BME280;7486;51.010;10.366;2023-08-07T03:10:15;97502.81;;;10.45;92.49
14790;BME280;7486;51.010;10.366;2023-08-07T03:13:00;97395.03;;;9.50;94.21
14790;BME280;7486;51.010;10.366;2023-08-07T03:15:46;97490.03;;;10.24;94.11
14790;BME280;7486;51.010;10.366;2023-08-07T03:18:33;97483.28;;;10.28;93.40
14790;BME280;7486;51.010;10.366;2023-08-07T03:21:19;97414.13;;;9.70;94.27
14790;BME280;7486;51.010;10.366;2023-08-07T03:24:05;97310.25;;;9.08;94.92
14790;BME280;7486;51.010;10.366;2023-08-07T03:26:50;97511.28;;;10.36;94.46
14790;BME280;7486;51.010;10.366;2023-08-07T03:29:36;97459.75;;;10.02;94.16
14790;BME280;7486;51.010;10.366;2023-08-07T03:32:22;97511.66;;;10.21;94.85
14790;BME280;7486;51.010;10.366;2023-08-07T03:35:07;97250.66;;;8.51;95.05
14790;BME280;7486;51.010;10.366;2023-08-07T03:37:53;97561.00;;;10.70;93.23
14790;BME280;7486;51.010;10.366;2023-08-07T03:40:38;97540.19;;;10.55;93.23
14790;BME280;7486;51.010;10.366;2023-08-07T03:43:26;97408.72;;;9.65;92.85
14790;BME280;7486;51.010;10.366;2023-08-07T03:46:11;97485.13;;;10.09;93.98
14790;BME280;7486;51.010;10.366;2023-08-07T03:48:57;97359.56;;;9.39;94.15
14790;BME280;7486;51.010;10.366;2023-08-07T03:51:43;97281.22;;;8.84;92.88
14790;BME280;7486;51.010;10.366;2023-08-07T03:54:28;97538.59;;;10.54;93.02
14790;BME280;7486;51.010;10.366;2023-08-07T03:57:13;97479.75;;;10.16;92.23
14790;BME280;7486;51.010;10.366;2023-08-07T03:59:59;97482.81;;;10.31;91.28
14790;BME280;7486;51.010;10.366;2023-08-07T04:02:46;97503.72;;;10.39;90.96
14790;BME280;7486;51.010;10.366;2023-08-07T04:05:33;97540.28;;;10.67;90.49
14790;BME280;7486;51.010;10.366;2023-08-07T04:08:19;97282.03;;;8.84;90.85
14790;BME280;7486;51.010;10.366;2023-08-07T04:11:05;97557.34;;;10.53;93.67
14790;BME280;7486;51.010;10.366;2023-08-07T04:13:52;97350.28;;;9.30;91.92
14790;BME280;7486;51.010;10.366;2023-08-07T04:16:37;97574.69;;;10.67;91.84
14790;BME280;7486;51.010;10.366;2023-08-07T04:19:22;97463.59;;;10.06;91.11
14790;BME280;7486;51.010;10.366;2023-08-07T04:22:08;97423.66;;;9.53;92.53
14790;BME280;7486;51.010;10.366;2023-08-07T04:24:53;97471.56;;;9.63;93.62
14790;BME280;7486;51.010;10.366;2023-08-07T04:27:39;97416.41;;;9.48;92.82
14790;BME280;7486;51.010;10.366;2023-08-07T04:30:24;97575.88;;;10.53;92.04
14790;BME280;7486;51.010;10.366;2023-08-07T04:33:10;97587.84;;;10.55;92.52
14790;BME280;7486;51.010;10.366;2023-08-07T04:35:56;97520.03;;;10.18;92.29
14790;BME280;7486;51.010;10.366;2023-08-07T04:38:42;97401.13;;;9.50;91.65
14790;BME280;7486;51.010;10.366;2023-08-07T04:41:27;97561.88;;;10.46;92.29
14790;BME280;7486;51.010;10.366;2023-08-07T04:44:12;97488.41;;;9.87;93.11
14790;BME280;7486;51.010;10.366;2023-08-07T04:46:58;97520.75;;;10.07;92.04
14790;BME280;7486;51.010;10.366;2023-08-07T04:49:43;97493.84;;;9.92;92.79
14790;BME280;7486;51.010;10.366;2023-08-07T04:52:29;97338.22;;;8.91;92.29
14790;BME280;7486;51.010;10.366;2023-08-07T04:55:14;97358.88;;;9.01;92.60
14790;BME280;7486;51.010;10.366;2023-08-07T04:57:59;97522.75;;;10.11;92.27
14790;BME280;7486;51.010;10.366;2023-08-07T05:00:45;97522.38;;;10.08;91.49
14790;BME280;7486;51.010;10.366;2023-08-07T05:03:30;97584.19;;;10.56;91.25
14790;BME280;7486;51.010;10.366;2023-08-07T05:06:16;97294.41;;;8.65;91.50
14790;BME280;7486;51.010;10.366;2023-08-07T05:09:02;97504.75;;;10.02;91.89
14790;BME280;7486;51.010;10.366;2023-08-07T05:11:47;97526.78;;;10.14;91.22
14790;BME280;7486;51.010;10.366;2023-08-07T05:14:33;97615.72;;;10.76;91.02
14790;BME280;7486;51.010;10.366;2023-08-07T05:17:18;97486.81;;;9.86;91.13
14790;BME280;7486;51.010;10.366;2023-08-07T05:20:04;97435.66;;;9.55;91.04
14790;BME280;7486;51.010;10.366;2023-08-07T05:22:50;97469.06;;;9.68;90.17
14790;BME280;7486;51.010;10.366;2023-08-07T05:25:35;97589.38;;;10.45;90.09
14790;BME280;7486;51.010;10.366;2023-08-07T05:28:21;97555.31;;;10.12;91.88
14790;BME280;7486;51.010;10.366;2023-08-07T05:31:06;97542.50;;;9.91;92.61
14790;BME280;7486;51.010;10.366;2023-08-07T05:33:51;97354.41;;;8.77;92.96
14790;BME280;7486;51.010;10.366;2023-08-07T05:36:37;97394.13;;;9.13;91.66
14790;BME280;7486;51.010;10.366;2023-08-07T05:39:22;97238.81;;;8.11;90.93
14790;BME280;7486;51.010;10.366;2023-08-07T05:42:08;97522.72;;;9.93;91.33
14790;BME280;7486;51.010;10.366;2023-08-07T05:44:53;97571.34;;;10.35;90.66
14790;BME280;7486;51.010;10.366;2023-08-07T05:47:39;97439.16;;;9.49;90.33
14790;BME280;7486;51.010;10.366;2023-08-07T05:50:24;97425.13;;;9.24;90.92
14790;BME280;7486;51.010;10.366;2023-08-07T05:53:10;97623.09;;;10.74;90.17
14790;BME280;7486;51.010;10.366;2023-08-07T05:55:56;97484.66;;;9.94;88.78
14790;BME280;7486;51.010;10.366;2023-08-07T05:58:41;97617.72;;;10.62;89.71
14790;BME280;7486;51.010;10.366;2023-08-07T06:01:26;97433.47;;;9.46;89.55
14790;BME280;7486;51.010;10.366;2023-08-07T06:04:12;97576.19;;;10.38;90.56
14790;BME280;7486;51.010;10.366;2023-08-07T06:06:57;97495.69;;;9.91;90.24
14790;BME280;7486;51.010;10.366;2023-08-07T06:09:43;97496.19;;;9.82;90.30
14790;BME280;7486;51.010;10.366;2023-08-07T06:12:28;97375.84;;;9.11;89.78
14790;BME280;7486;51.010;10.366;2023-08-07T06:15:14;97459.06;;;9.52;90.71
14790;BME280;7486;51.010;10.366;2023-08-07T06:17:59;97565.00;;;10.18;92.12
14790;BME280;7486;51.010;10.366;2023-08-07T06:20:44;97540.47;;;9.93;93.12
14790;BME280;7486;51.010;10.366;2023-08-07T06:23:30;97574.44;;;10.32;92.76
14790;BME280;7486;51.010;10.366;2023-08-07T06:26:15;97614.72;;;10.59;92.10
14790;BME280;7486;51.010;10.366;2023-08-07T06:29:01;97628.25;;;10.87;91.31
14790;BME280;7486;51.010;10.366;2023-08-07T06:31:46;97448.06;;;9.73;90.29
14790;BME280;7486;51.010;10.366;2023-08-07T06:34:35;97583.44;;;10.49;90.59
14790;BME280;7486;51.010;10.366;2023-08-07T06:37:20;97637.25;;;10.68;90.90
14790;BME280;7486;51.010;10.366;2023-08-07T06:40:07;97625.75;;;10.74;92.25
14790;BME280;7486;51.010;10.366;2023-08-07T06:42:52;97646.34;;;10.90;91.61
14790;BME280;7486;51.010;10.366;2023-08-07T06:45:38;97606.91;;;10.82;91.27
14790;BME280;7486;51.010;10.366;2023-08-07T06:48:23;97557.13;;;10.54;91.11
14790;BME280;7486;51.010;10.366;2023-08-07T06:51:08;97647.06;;;10.79;92.62
14790;BME280;7486;51.010;10.366;2023-08-07T06:53:54;97416.72;;;9.58;91.22
14790;BME280;7486;51.010;10.366;2023-08-07T06:56:39;97517.47;;;10.11;90.16
14790;BME280;7486;51.010;10.366;2023-08-07T06:59:25;97596.53;;;10.62;90.94
14790;BME280;7486;51.010;10.366;2023-08-07T07:02:10;97582.03;;;10.47;91.95
14790;BME280;7486;51.010;10.366;2023-08-07T07:04:56;97637.91;;;10.82;91.04
14790;BME280;7486;51.010;10.366;2023-08-07T07:07:41;97525.78;;;10.33;89.34
14790;BME280;7486;51.010;10.366;2023-08-07T07:10:26;97534.88;;;10.19;90.32
14790;BME280;7486;51.010;10.366;2023-08-07T07:13:12;97440.50;;;9.77;90.18
14790;BME280;7486;51.010;10.366;2023-08-07T07:15:57;97661.56;;;11.13;90.81
14790;BME280;7486;51.010;10.366;2023-08-07T07:18:43;97591.59;;;10.48;90.42
14790;BME280;7486;51.010;10.366;2023-08-07T07:21:29;97618.09;;;10.66;90.33
14790;BME280;7486;51.010;10.366;2023-08-07T07:24:14;97551.88;;;10.30;90.55
14790;BME280;7486;51.010;10.366;2023-08-07T07:27:00;97670.28;;;11.02;90.41
14790;BME280;7486;51.010;10.366;2023-08-07T07:29:45;97509.16;;;10.08;89.39
14790;BME280;7486;51.010;10.366;2023-08-07T07:32:31;97613.06;;;10.94;88.66
14790;BME280;7486;51.010;10.366;2023-08-07T07:35:16;97700.44;;;11.19;89.33
14790;BME280;7486;51.010;10.366;2023-08-07T07:38:01;97599.91;;;10.69;90.18
14790;BME280;7486;51.010;10.366;2023-08-07T07:40:47;97510.91;;;10.14;90.89
14790;BME280;7486;51.010;10.366;2023-08-07T07:43:32;97713.44;;;11.39;90.76
14790;BME280;7486;51.010;10.366;2023-08-07T07:46:18;97634.56;;;11.04;90.28
14790;BME280;7486;51.010;10.366;2023-08-07T07:49:03;97630.34;;;11.15;88.39
14790;BME280;7486;51.010;10.366;2023-08-07T07:51:49;97655.88;;;11.28;88.47
14790;BME280;7486;51.010;10.366;2023-08-07T07:54:34;97486.44;;;10.37;87.63
14790;BME280;7486;51.010;10.366;2023-08-07T07:57:20;97634.84;;;11.14;87.88
14790;BME280;7486;51.010;10.366;2023-08-07T08:00:07;97705.84;;;11.42;88.32
14790;BME280;7486;51.010;10.366;2023-08-07T08:02:55;97724.25;;;11.37;88.64
14790;BME280;7486;51.010;10.366;2023-08-07T08:05:41;97618.00;;;10.72;89.45
14790;BME280;7486;51.010;10.366;2023-08-07T08:08:27;97751.59;;;11.56;90.12
14790;BME280;7486;51.010;10.366;2023-08-07T08:11:13;97695.06;;;11.07;90.60
14790;BME280;7486;51.010;10.366;2023-08-07T08:13:58;97511.56;;;9.91;91.04
14790;BME280;7486;51.010;10.366;2023-08-07T08:16:44;97756.97;;;11.49;91.30
14790;BME280;7486;51.010;10.366;2023-08-07T08:19:29;97512.13;;;9.75;91.45
14790;BME280;7486;51.010;10.366;2023-08-07T08:22:29;97542.22;;;9.99;93.01
14790;BME280;7486;51.010;10.366;2023-08-07T08:25:16;97774.22;;;11.40;92.34
14790;BME280;7486;51.010;10.366;2023-08-07T08:28:02;97743.88;;;11.36;91.98
14790;BME280;7486;51.010;10.366;2023-08-07T08:30:48;97544.75;;;10.30;90.67
14790;BME280;7486;51.010;10.366;2023-08-07T08:33:33;97616.19;;;10.73;90.23
14790;BME280;7486;51.010;10.366;2023-08-07T08:36:19;97751.97;;;11.41;90.37
14790;BME280;7486;51.010;10.366;2023-08-07T08:39:04;97706.97;;;11.16;91.13
14790;BME280;7486;51.010;10.366;2023-08-07T08:41:50;97759.00;;;11.47;90.29
14790;BME280;7486;51.010;10.366;2023-08-07T08:44:39;97787.09;;;11.73;90.97
14790;BME280;7486;51.010;10.366;2023-08-07T08:47:31;97791.59;;;11.72;90.52
14790;BME280;7486;51.010;10.366;2023-08-07T08:50:21;97765.38;;;11.46;91.11
14790;BME280;7486;51.010;10.366;2023-08-07T08:53:08;97789.06;;;11.41;91.98
14790;BME280;7486;51.010;10.366;2023-08-07T08:55:57;97741.97;;;10.89;93.03
14790;BME280;7486;51.010;10.366;2023-08-07T08:58:42;97734.50;;;10.97;93.48
14790;BME280;7486;51.010;10.366;2023-08-07T09:01:29;97651.34;;;10.62;92.44
14790;BME280;7486;51.010;10.366;2023-08-07T09:04:14;97747.25;;;11.25;91.74
14790;BME280;7486;51.010;10.366;2023-08-07T09:07:01;97664.22;;;10.77;90.62
14790;BME280;7486;51.010;10.366;2023-08-07T09:09:47;97593.03;;;10.26;90.20
14790;BME280;7486;51.010;10.366;2023-08-07T09:12:38;97784.81;;;11.58;91.00
14790;BME280;7486;51.010;10.366;2023-08-07T09:15:29;97809.03;;;11.98;89.45
14790;BME280;7486;51.010;10.366;2023-08-07T09:18:16;97702.47;;;11.17;89.36
14790;BME280;7486;51.010;10.366;2023-08-07T09:21:02;97800.28;;;11.61;88.64
14790;BME280;7486;51.010;10.366;2023-08-07T09:23:48;97786.94;;;11.50;88.67
14790;BME280;7486;51.010;10.366;2023-08-07T09:26:34;97804.81;;;11.61;90.23
14790;BME280;7486;51.010;10.366;2023-08-07T09:29:20;97713.78;;;11.12;89.83
14790;BME280;7486;51.010;10.366;2023-08-07T09:32:11;97779.97;;;11.55;89.57
14790;BME280;7486;51.010;10.366;2023-08-07T09:34:57;97792.84;;;11.70;90.30
14790;BME280;7486;51.010;10.366;2023-08-07T09:37:43;97823.81;;;12.06;89.35
14790;BME280;7486;51.010;10.366;2023-08-07T09:40:29;97731.03;;;11.51;88.25
14790;BME280;7486;51.010;10.366;2023-08-07T09:43:22;97771.41;;;11.53;89.24
14790;BME280;7486;51.010;10.366;2023-08-07T09:46:10;97718.47;;;11.10;90.84
14790;BME280;7486;51.010;10.366;2023-08-07T09:48:57;97719.88;;;10.95;90.97
14790;BME280;7486;51.010;10.366;2023-08-07T09:55:56;97833.28;;;11.47;91.35
14790;BME280;7486;51.010;10.366;2023-08-07T09:58:47;97696.53;;;10.67;92.91
14790;BME280;7486;51.010;10.366;2023-08-07T10:01:32;97822.84;;;11.70;93.80
14790;BME280;7486;51.010;10.366;2023-08-07T10:04:18;97819.28;;;11.77;90.62
14790;BME280;7486;51.010;10.366;2023-08-07T10:07:04;97842.16;;;11.78;91.51
14790;BME280;7486;51.010;10.366;2023-08-07T10:09:49;97870.00;;;11.68;91.45
14790;BME280;7486;51.010;10.366;2023-08-07T10:12:36;97864.41;;;11.58;92.21
14790;BME280;7486;51.010;10.366;2023-08-07T10:15:22;97751.50;;;10.90;91.60
14790;BME280;7486;51.010;10.366;2023-08-07T10:18:11;97755.78;;;10.91;92.17
14790;BME280;7486;51.010;10.366;2023-08-07T10:20:57;97860.38;;;11.31;93.71
14790;BME280;7486;51.010;10.366;2023-08-07T10:23:43;97766.38;;;10.91;94.82
14790;BME280;7486;51.010;10.366;2023-08-07T10:26:32;97785.03;;;11.02;95.67
14790;BME280;7486;51.010;10.366;2023-08-07T10:29:19;97814.44;;;11.55;95.20
14790;BME280;7486;51.010;10.366;2023-08-07T10:32:07;97741.75;;;11.08;94.20
14790;BME280;7486;51.010;10.366;2023-08-07T10:34:53;97812.78;;;11.61;94.96
14790;BME280;7486;51.010;10.366;2023-08-07T10:37:44;97846.31;;;11.85;96.48
14790;BME280;7486;51.010;10.366;2023-08-07T10:40:31;97684.63;;;11.12;95.46
14790;BME280;7486;51.010;10.366;2023-08-07T10:43:17;97740.81;;;11.99;96.04
14790;BME280;7486;51.010;10.366;2023-08-07T10:46:15;97826.47;;;12.89;92.93
14790;BME280;7486;51.010;10.366;2023-08-07T10:49:01;97617.06;;;11.63;90.55
14790;BME280;7486;51.010;10.366;2023-08-07T10:51:46;97587.78;;;11.69;88.79
14790;BME280;7486;51.010;10.366;2023-08-07T10:54:40;97857.22;;;13.31;88.04
14790;BME280;7486;51.010;10.366;2023-08-07T10:57:31;97780.91;;;13.20;86.51
14790;BME280;7486;51.010;10.366;2023-08-07T11:04:45;97825.91;;;13.21;83.68
14790;BME280;7486;51.010;10.366;2023-08-07T11:07:33;97626.91;;;11.97;82.27
14790;BME280;7486;51.010;10.366;2023-08-07T11:10:19;97849.59;;;13.35;83.25
14790;BME280;7486;51.010;10.366;2023-08-07T11:13:04;97846.81;;;13.30;81.73
14790;BME280;7486;51.010;10.366;2023-08-07T11:15:49;97842.53;;;13.17;83.07
14790;BME280;7486;51.010;10.366;2023-08-07T11:18:37;97632.22;;;11.97;82.59
14790;BME280;7486;51.010;10.366;2023-08-07T11:21:23;97653.06;;;11.70;82.28
14790;BME280;7486;51.010;10.366;2023-08-07T11:24:13;97822.50;;;12.56;82.34
14790;BME280;7486;51.010;10.366;2023-08-07T11:26:59;97745.59;;;11.79;84.59
14790;BME280;7486;51.010;10.366;2023-08-07T11:29:49;97870.78;;;12.65;86.96
14790;BME280;7486;51.010;10.366;2023-08-07T11:32:36;97692.28;;;11.50;87.62
14790;BME280;7486;51.010;10.366;2023-08-07T11:35:22;97595.16;;;11.08;87.68
14790;BME280;7486;51.010;10.366;2023-08-07T11:38:07;97772.91;;;12.09;87.63
14790;BME280;7486;51.010;10.366;2023-08-07T11:40:53;97863.00;;;12.52;88.79
14790;BME280;7486;51.010;10.366;2023-08-07T11:43:39;97862.06;;;12.76;90.82
14790;BME280;7486;51.010;10.366;2023-08-07T11:46:25;97881.63;;;13.16;90.76
14790;BME280;7486;51.010;10.366;2023-08-07T11:49:12;97855.47;;;13.02;89.89
14790;BME280;7486;51.010;10.366;2023-08-07T11:51:58;97815.50;;;12.97;89.77
14790;BME280;7486;51.010;10.366;2023-08-07T11:54:47;97880.72;;;13.69;88.07
14790;BME280;7486;51.010;10.366;2023-08-07T11:57:32;97665.03;;;12.49;85.83
14790;BME280;7486;51.010;10.366;2023-08-07T12:00:18;97755.25;;;13.02;82.53
14790;BME280;7486;51.010;10.366;2023-08-07T12:03:26;97843.72;;;13.56;82.27
14790;BME280;7486;51.010;10.366;2023-08-07T12:06:12;97890.41;;;13.75;81.80
14790;BME280;7486;51.010;10.366;2023-08-07T12:08:59;97863.94;;;13.45;84.10
14790;BME280;7486;51.010;10.366;2023-08-07T12:11:44;97779.56;;;12.83;84.46
14790;BME280;7486;51.010;10.366;2023-08-07T12:14:30;97844.03;;;12.90;86.84
14790;BME280;7486;51.010;10.366;2023-08-07T12:17:16;97798.50;;;12.86;84.11
14790;BME280;7486;51.010;10.366;2023-08-07T12:20:04;97904.16;;;13.25;85.78
14790;BME280;7486;51.010;10.366;2023-08-07T12:22:50;97741.44;;;11.71;86.17
14790;BME280;7486;51.010;10.366;2023-08-07T12:25:36;97873.53;;;13.00;88.88
14790;BME280;7486;51.010;10.366;2023-08-07T12:28:21;97785.66;;;12.71;90.68
14790;BME280;7486;51.010;10.366;2023-08-07T12:31:07;97685.78;;;12.06;85.35
14790;BME280;7486;51.010;10.366;2023-08-07T12:33:53;97814.00;;;13.01;85.54
14790;BME280;7486;51.010;10.366;2023-08-07T12:36:40;97823.47;;;13.08;85.16
14790;BME280;7486;51.010;10.366;2023-08-07T12:39:25;97846.31;;;13.79;84.07
14790;BME280;7486;51.010;10.366;2023-08-07T12:42:31;97882.63;;;14.25;82.10
14790;BME280;7486;51.010;10.366;2023-08-07T12:45:16;97868.03;;;14.56;81.32
14790;BME280;7486;51.010;10.366;2023-08-07T12:48:02;97713.75;;;13.93;79.02
14790;BME280;7486;51.010;10.366;2023-08-07T12:50:48;97802.88;;;14.35;78.58
14790;BME280;7486;51.010;10.366;2023-08-07T12:53:34;97900.69;;;14.80;78.46
14790;BME280;7486;51.010;10.366;2023-08-07T12:56:22;97815.19;;;14.08;79.04
14790;BME280;7486;51.010;10.366;2023-08-07T12:59:08;97828.41;;;14.31;76.98
14790;BME280;7486;51.010;10.366;2023-08-07T13:01:54;97850.84;;;14.80;79.22
14790;BME280;7486;51.010;10.366;2023-08-07T13:04:40;97860.28;;;15.21;77.37
14790;BME280;7486;51.010;10.366;2023-08-07T13:07:25;97868.47;;;15.14;75.65
14790;BME280;7486;51.010;10.366;2023-08-07T13:10:13;97871.22;;;15.36;76.32
14790;BME280;7486;51.010;10.366;2023-08-07T13:12:59;97883.78;;;15.74;73.38
14790;BME280;7486;51.010;10.366;2023-08-07T13:15:44;97686.31;;;13.92;69.71
14790;BME280;7486;51.010;10.366;2023-08-07T13:18:30;97723.38;;;13.54;72.11
14790;BME280;7486;51.010;10.366;2023-08-07T13:21:15;97780.88;;;13.55;73.16
14790;BME280;7486;51.010;10.366;2023-08-07T13:24:00;97855.75;;;13.98;73.81
14790;BME280;7486;51.010;10.366;2023-08-07T13:26:46;97769.63;;;13.64;74.42
14790;BME280;7486;51.010;10.366;2023-08-07T13:29:31;97916.06;;;13.93;73.54
14790;BME280;7486;51.010;10.366;2023-08-07T13:32:17;97774.94;;;13.01;72.74
14790;BME280;7486;51.010;10.366;2023-08-07T13:35:03;97892.84;;;13.53;75.67
14790;BME280;7486;51.010;10.366;2023-08-07T13:37:49;97960.06;;;13.49;80.05
14790;BME280;7486;51.010;10.366;2023-08-07T13:40:34;97765.06;;;11.72;83.46
14790;BME280;7486;51.010;10.366;2023-08-07T13:43:20;97953.00;;;12.12;88.02
14790;BME280;7486;51.010;10.366;2023-08-07T13:46:05;97856.06;;;11.37;88.63
14790;BME280;7486;51.010;10.366;2023-08-07T13:48:51;97834.31;;;11.28;88.94
14790;BME280;7486;51.010;10.366;2023-08-07T13:51:37;97935.00;;;12.14;88.19
14790;BME280;7486;51.010;10.366;2023-08-07T13:54:22;97937.22;;;12.17;89.04
14790;BME280;7486;51.010;10.366;2023-08-07T13:57:07;97875.94;;;12.18;93.80
14790;BME280;7486;51.010;10.366;2023-08-07T13:59:52;97890.94;;;12.54;86.94
14790;BME280;7486;51.010;10.366;2023-08-07T14:02:38;97956.22;;;13.21;89.16
14790;BME280;7486;51.010;10.366;2023-08-07T14:05:23;97894.50;;;12.66;82.75
14790;BME280;7486;51.010;10.366;2023-08-07T14:08:09;97925.22;;;12.62;86.84
14790;BME280;7486;51.010;10.366;2023-08-07T14:10:55;97955.16;;;13.11;87.33
14790;BME280;7486;51.010;10.366;2023-08-07T14:13:40;97955.97;;;13.11;84.79
14790;BME280;7486;51.010;10.366;2023-08-07T14:16:26;97991.22;;;13.07;84.44
14790;BME280;7486;51.010;10.366;2023-08-07T14:19:11;97859.09;;;12.24;84.44
14790;BME280;7486;51.010;10.366;2023-08-07T14:21:57;97985.22;;;13.23;82.57
14790;BME280;7486;51.010;10.366;2023-08-07T14:24:42;97741.50;;;11.46;79.51
14790;BME280;7486;51.010;10.366;2023-08-07T14:27:28;97829.16;;;11.51;80.14
14790;BME280;7486;51.010;10.366;2023-08-07T14:30:14;97834.19;;;11.16;79.01
14790;BME280;7486;51.010;10.366;2023-08-07T14:32:59;98025.94;;;12.28;79.29
14790;BME280;7486;51.010;10.366;2023-08-07T14:35:45;97875.44;;;11.12;81.85
14790;BME280;7486;51.010;10.366;2023-08-07T14:38:30;98046.50;;;12.14;80.16
14790;BME280;7486;51.010;10.366;2023-08-07T14:41:17;97870.59;;;11.09;80.51
14790;BME280;7486;51.010;10.366;2023-08-07T14:44:03;97989.88;;;12.20;80.67
14790;BME280;7486;51.010;10.366;2023-08-07T14:46:48;97986.66;;;12.48;79.18
14790;BME280;7486;51.010;10.366;2023-08-07T14:49:34;97996.19;;;12.73;78.26
14790;BME280;7486;51.010;10.366;2023-08-07T14:52:19;97965.03;;;12.81;79.11
14790;BME280;7486;51.010;10.366;2023-08-07T14:55:05;97892.75;;;12.12;76.38
14790;BME280;7486;51.010;10.366;2023-08-07T14:57:51;97945.41;;;12.93;78.51